createdAt,value
2023-05-19T00:00:57.700Z,12
2023-05-19T00:02:04.785Z,9
2023-05-19T00:03:15.901Z,9
2023-05-19T00:04:26.352Z,10
2023-05-19T00:05:40.647Z,10
2023-05-19T00:06:47.680Z,9
2023-05-19T00:07:59.190Z,10
2023-05-19T00:09:09.013Z,10
2023-05-19T00:10:19.782Z,9
2023-05-19T00:11:26.986Z,8
2023-05-19T00:12:34.545Z,11
2023-05-19T00:13:44.248Z,8
2023-05-19T00:14:55.930Z,10
2023-05-19T00:16:06.114Z,10
2023-05-19T00:17:16.623Z,9
2023-05-19T00:18:30.488Z,9
2023-05-19T00:19:43.478Z,10
2023-05-19T00:20:50.409Z,9
2023-05-19T00:22:01.960Z,10
2023-05-19T00:23:09.830Z,10
2023-05-19T00:24:20.590Z,10
2023-05-19T00:25:27.493Z,11
2023-05-19T00:26:34.991Z,9
2023-05-19T00:27:48.661Z,11
2023-05-19T00:28:55.554Z,10
2023-05-19T00:30:03.593Z,9
2023-05-19T00:31:16.823Z,10
2023-05-19T00:32:30.040Z,10
2023-05-19T00:33:39.521Z,10
2023-05-19T00:34:46.927Z,10
2023-05-19T00:35:54.612Z,12
2023-05-19T00:37:06.210Z,10
2023-05-19T00:38:16.840Z,11
2023-05-19T00:39:24.619Z,11
2023-05-19T00:40:31.652Z,11
2023-05-19T00:41:38.633Z,10
2023-05-19T00:42:45.633Z,11
2023-05-19T00:43:52.556Z,11
2023-05-19T00:45:05.437Z,11
2023-05-19T00:46:13.556Z,9
2023-05-19T00:47:20.666Z,11
2023-05-19T00:48:29.534Z,11
2023-05-19T00:49:40.056Z,10
2023-05-19T00:50:46.809Z,11
2023-05-19T00:51:54.490Z,10
2023-05-19T00:53:08.417Z,11
2023-05-19T00:54:18.028Z,11
2023-05-19T00:55:28.124Z,12
2023-05-19T00:56:35.023Z,11
2023-05-19T00:57:41.984Z,10
2023-05-19T00:58:48.937Z,9
2023-05-19T00:59:58.122Z,10
2023-05-19T01:01:07.729Z,11
2023-05-19T01:02:19.069Z,10
2023-05-19T01:03:27.105Z,10
2023-05-19T01:04:40.310Z,12
2023-05-19T01:05:50.101Z,12
2023-05-19T01:07:08.387Z,11
2023-05-19T01:08:15.606Z,10
2023-05-19T01:09:29.350Z,10
2023-05-19T01:10:36.413Z,12
2023-05-19T01:11:43.841Z,12
2023-05-19T01:12:52.651Z,10
2023-05-19T01:14:04.583Z,11
2023-05-19T01:15:14.308Z,11
2023-05-19T01:16:26.265Z,8
2023-05-19T01:17:42.438Z,10
2023-05-19T01:18:50.133Z,10
2023-05-19T01:20:03.107Z,11
2023-05-19T01:21:15.135Z,10
2023-05-19T01:22:25.434Z,10
2023-05-19T01:23:39.934Z,10
2023-05-19T01:24:57.514Z,9
2023-05-19T01:26:09.926Z,9
2023-05-19T01:27:32.102Z,10
2023-05-19T01:28:47.291Z,11
2023-05-19T01:30:14.043Z,9
2023-05-19T01:31:32.381Z,9
2023-05-19T01:32:51.333Z,9
2023-05-19T01:33:59.251Z,8
2023-05-19T01:35:08.040Z,9
2023-05-19T01:36:15.235Z,10
2023-05-19T01:37:27.509Z,9
2023-05-19T01:38:34.463Z,9
2023-05-19T01:39:50.704Z,9
2023-05-19T01:41:03.736Z,9
2023-05-19T01:42:10.697Z,10
2023-05-19T01:43:17.571Z,10
2023-05-19T01:44:27.281Z,10
2023-05-19T01:45:37.912Z,9
2023-05-19T01:46:50.240Z,10
2023-05-19T01:48:11.761Z,11
2023-05-19T01:49:28.617Z,10
2023-05-19T01:50:39.415Z,9
2023-05-19T01:51:49.435Z,10
2023-05-19T01:52:57.531Z,10
2023-05-19T01:54:06.209Z,11
2023-05-19T01:55:13.110Z,9
2023-05-19T01:56:23.261Z,9
2023-05-19T01:57:41.628Z,9
2023-05-19T01:58:56.684Z,9
2023-05-19T02:00:07.088Z,9
2023-05-19T02:01:22.137Z,11
2023-05-19T02:02:42.868Z,9
2023-05-19T02:03:58.486Z,8
2023-05-19T02:05:19.373Z,11
2023-05-19T02:06:34.144Z,10
2023-05-19T02:07:53.629Z,11
2023-05-19T02:09:10.695Z,10
2023-05-19T02:10:31.192Z,8
2023-05-19T02:11:38.035Z,10
2023-05-19T02:12:51.901Z,10
2023-05-19T02:14:04.166Z,11
2023-05-19T02:15:28.636Z,11
2023-05-19T02:16:41.778Z,10
2023-05-19T02:17:51.796Z,9
2023-05-19T02:19:00.396Z,10
2023-05-19T02:20:07.969Z,11
2023-05-19T02:21:18.910Z,11
2023-05-19T02:22:27.769Z,10
2023-05-19T02:23:35.827Z,13
2023-05-19T02:24:45.784Z,10
2023-05-19T02:25:53.467Z,10
2023-05-19T02:27:03.432Z,9
2023-05-19T02:28:25.259Z,9
2023-05-19T02:29:32.302Z,10
2023-05-19T02:30:42.371Z,11
2023-05-19T02:31:52.700Z,10
2023-05-19T02:33:02.552Z,12
2023-05-19T02:34:14.863Z,11
2023-05-19T02:35:22.416Z,10
2023-05-19T02:36:34.317Z,10
2023-05-19T02:37:42.409Z,10
2023-05-19T02:38:52.402Z,9
2023-05-19T02:40:06.703Z,10
2023-05-19T02:41:13.766Z,10
2023-05-19T02:42:24.539Z,13
2023-05-19T02:43:32.018Z,11
2023-05-19T02:44:44.512Z,11
2023-05-19T02:45:51.395Z,11
2023-05-19T02:47:06.514Z,10
2023-05-19T02:48:10.649Z,9
2023-05-19T02:49:21.299Z,10
2023-05-19T02:50:29.515Z,11
2023-05-19T02:51:39.266Z,11
2023-05-19T02:52:49.884Z,9
2023-05-19T02:53:59.537Z,12
2023-05-19T02:55:08.586Z,12
2023-05-19T02:56:18.566Z,12
2023-05-19T02:57:29.055Z,11
2023-05-19T02:58:39.977Z,10
2023-05-19T02:59:50.455Z,12
2023-05-19T03:00:57.535Z,10
2023-05-19T03:02:06.214Z,11
2023-05-19T03:03:19.490Z,11
2023-05-19T03:04:30.332Z,11
2023-05-19T03:05:37.432Z,10
2023-05-19T03:06:47.696Z,11
2023-05-19T03:07:55.499Z,10
2023-05-19T03:09:06.526Z,10
2023-05-19T03:10:22.946Z,10
2023-05-19T03:11:30.817Z,12
2023-05-19T03:12:42.166Z,11
2023-05-19T03:13:49.955Z,12
2023-05-19T03:15:00.737Z,10
2023-05-19T03:16:12.186Z,11
2023-05-19T03:17:25.158Z,12
2023-05-19T03:18:31.833Z,10
2023-05-19T03:19:44.600Z,12
2023-05-19T03:20:55.200Z,11
2023-05-19T03:22:08.127Z,11
2023-05-19T03:23:15.121Z,12
2023-05-19T03:24:27.076Z,10
2023-05-19T03:25:37.280Z,12
2023-05-19T03:26:48.618Z,12
2023-05-19T03:27:56.354Z,11
2023-05-19T03:29:06.577Z,10
2023-05-19T03:30:16.567Z,10
2023-05-19T03:31:26.461Z,10
2023-05-19T03:32:34.105Z,12
2023-05-19T03:33:46.446Z,10
2023-05-19T03:34:56.612Z,11
2023-05-19T03:36:07.198Z,10
2023-05-19T03:37:14.950Z,9
2023-05-19T03:38:21.968Z,11
2023-05-19T03:39:29.159Z,11
2023-05-19T03:40:43.664Z,12
2023-05-19T03:41:53.308Z,11
2023-05-19T03:43:00.219Z,12
2023-05-19T03:44:12.981Z,11
2023-05-19T03:45:20.872Z,14
2023-05-19T03:46:29.860Z,11
2023-05-19T03:47:36.652Z,11
2023-05-19T03:48:43.865Z,13
2023-05-19T03:49:52.073Z,13
2023-05-19T03:51:02.399Z,13
2023-05-19T03:52:25.387Z,12
2023-05-19T03:53:36.242Z,13
2023-05-19T03:54:43.668Z,13
2023-05-19T03:55:50.539Z,14
2023-05-19T03:56:58.058Z,13
2023-05-19T03:58:08.996Z,12
2023-05-19T03:59:18.850Z,13
2023-05-19T04:00:26.072Z,13
2023-05-19T04:01:33.052Z,13
2023-05-19T04:02:43.009Z,12
2023-05-19T04:03:58.529Z,14
2023-05-19T04:05:09.071Z,13
2023-05-19T04:06:19.542Z,13
2023-05-19T04:07:27.834Z,14
2023-05-19T04:08:38.153Z,14
2023-05-19T04:09:51.426Z,13
2023-05-19T04:11:01.295Z,14
2023-05-19T04:12:10.179Z,13
2023-05-19T04:13:17.780Z,14
2023-05-19T04:14:27.966Z,13
2023-05-19T04:15:41.346Z,12
2023-05-19T04:16:48.982Z,13
2023-05-19T04:18:00.593Z,14
2023-05-19T04:19:16.727Z,14
2023-05-19T04:20:33.965Z,12
2023-05-19T04:21:41.481Z,13
2023-05-19T04:22:50.604Z,12
2023-05-19T04:24:00.594Z,11
2023-05-19T04:25:08.437Z,13
2023-05-19T04:26:16.099Z,13
2023-05-19T04:27:27.131Z,12
2023-05-19T04:28:35.933Z,12
2023-05-19T04:29:43.875Z,13
2023-05-19T04:30:53.122Z,13
2023-05-19T04:32:02.918Z,12
2023-05-19T04:33:11.219Z,13
2023-05-19T04:34:18.295Z,12
2023-05-19T04:35:26.171Z,11
2023-05-19T04:36:33.706Z,12
2023-05-19T04:37:40.796Z,12
2023-05-19T04:38:48.365Z,11
2023-05-19T04:39:58.461Z,13
2023-05-19T04:41:12.942Z,12
2023-05-19T04:42:20.245Z,14
2023-05-19T04:43:29.997Z,12
2023-05-19T04:44:37.097Z,12
2023-05-19T04:45:46.827Z,12
2023-05-19T04:46:57.127Z,15
2023-05-19T04:48:07.732Z,11
2023-05-19T04:49:22.294Z,11
2023-05-19T04:50:32.756Z,12
2023-05-19T04:51:44.795Z,11
2023-05-19T04:52:54.674Z,13
2023-05-19T04:54:01.988Z,12
2023-05-19T04:55:08.860Z,13
2023-05-19T04:56:18.205Z,12
2023-05-19T04:57:25.958Z,12
2023-05-19T04:58:32.899Z,11
2023-05-19T04:59:40.490Z,12
2023-05-19T05:00:47.624Z,12
2023-05-19T05:01:55.432Z,13
2023-05-19T05:03:02.808Z,13
2023-05-19T05:04:10.578Z,15
2023-05-19T05:05:17.570Z,14
2023-05-19T05:10:50.655Z,10
2023-05-19T05:13:44.593Z,13
2023-05-19T05:15:09.183Z,11
2023-05-19T05:16:39.800Z,11
2023-05-19T05:27:26.628Z,11
2023-05-19T05:36:33.354Z,13
2023-05-19T05:38:53.223Z,10
2023-05-19T06:06:05.104Z,8
2023-05-19T06:07:48.451Z,9
2023-05-19T06:09:02.265Z,8
2023-05-19T08:28:33.391Z,6
2023-05-19T08:31:36.532Z,7
2023-05-19T08:38:50.593Z,8
2023-05-19T09:17:46.251Z,7
2023-05-19T09:59:21.148Z,8
2023-05-19T10:01:18.048Z,9
2023-05-19T10:03:24.334Z,9
2023-05-19T10:04:39.227Z,8
2023-05-19T10:06:46.971Z,8
2023-05-19T12:17:36.928Z,11
2023-05-19T12:20:07.745Z,13
2023-05-19T12:53:14.401Z,10
2023-05-19T12:55:52.581Z,10
2023-05-19T12:56:59.662Z,10
2023-05-19T12:58:17.348Z,10
2023-05-19T12:59:38.257Z,10
2023-05-19T13:03:59.224Z,12
2023-05-19T13:05:16.958Z,8
2023-05-19T13:06:29.918Z,11
2023-05-19T13:08:07.949Z,11
2023-05-19T13:09:36.426Z,11
2023-05-19T13:10:43.220Z,11
2023-05-19T13:11:55.287Z,16
2023-05-19T13:13:12.760Z,11
2023-05-19T13:14:19.553Z,11
2023-05-19T13:22:07.821Z,13
2023-05-19T13:23:23.391Z,12
2023-05-19T16:37:22.978Z,11
2023-05-19T16:45:41.927Z,10
2023-05-19T16:56:46.278Z,10
2023-05-19T17:01:17.786Z,10
2023-05-19T17:03:27.722Z,10
2023-05-19T17:07:17.680Z,13
2023-05-19T17:10:39.295Z,11
2023-05-19T17:11:49.056Z,10
2023-05-19T17:15:07.039Z,13
2023-05-19T17:54:49.105Z,15
2023-05-19T17:56:02.784Z,16
2023-05-19T17:57:36.776Z,16
2023-05-19T17:59:30.099Z,16
2023-05-19T18:00:42.227Z,14
2023-05-19T18:02:48.658Z,14
2023-05-19T18:07:36.819Z,14
2023-05-19T18:09:20.849Z,14
2023-05-19T18:10:32.611Z,13
2023-05-19T18:11:44.323Z,13
2023-05-19T18:13:00.114Z,12
2023-05-19T18:14:13.083Z,14
2023-05-19T18:15:23.304Z,17
2023-05-19T18:17:09.108Z,17
2023-05-19T18:18:16.002Z,14
2023-05-19T18:19:52.071Z,14
2023-05-19T18:21:38.470Z,14
2023-05-19T18:25:47.479Z,16
2023-05-19T18:27:04.698Z,15
2023-05-19T18:28:24.601Z,14
2023-05-19T18:30:05.481Z,14
2023-05-19T18:31:28.249Z,15
2023-05-19T18:35:02.905Z,16
2023-05-19T18:36:14.823Z,15
2023-05-19T18:37:21.672Z,15
2023-05-19T18:38:41.215Z,16
2023-05-19T18:40:08.857Z,14
2023-05-19T18:41:45.890Z,14
2023-05-19T18:43:05.503Z,15
2023-05-19T18:44:13.464Z,17
2023-05-19T18:45:24.008Z,14
2023-05-19T18:47:19.202Z,14
2023-05-19T18:49:00.578Z,14
2023-05-19T18:50:09.711Z,16
2023-05-19T18:52:02.966Z,16
2023-05-19T18:53:18.026Z,12
2023-05-19T18:55:16.597Z,12
2023-05-19T18:56:25.387Z,13
2023-05-19T18:57:49.085Z,13
2023-05-19T18:59:33.566Z,13
2023-05-19T19:01:05.476Z,13
2023-05-19T19:04:28.413Z,13
2023-05-19T19:06:08.559Z,13
2023-05-19T19:07:37.895Z,13
2023-05-19T19:08:45.806Z,14
2023-05-19T19:10:26.241Z,14
2023-05-19T19:11:35.855Z,13
2023-05-19T19:12:45.876Z,14
2023-05-19T19:13:53.569Z,14
2023-05-19T19:15:05.186Z,14
2023-05-19T19:16:20.195Z,16
2023-05-19T19:18:13.507Z,16
2023-05-19T19:19:29.871Z,15
2023-05-19T19:20:57.509Z,13
2023-05-19T19:22:04.505Z,13
2023-05-19T19:23:12.569Z,16
2023-05-19T19:24:36.651Z,15
2023-05-19T19:25:48.682Z,12
2023-05-19T19:27:10.889Z,13
2023-05-19T19:28:41.258Z,13
2023-05-19T19:29:54.655Z,13
2023-05-19T19:31:02.185Z,12
2023-05-19T19:32:40.589Z,12
2023-05-19T19:33:50.562Z,13
2023-05-19T19:35:00.393Z,15
2023-05-19T19:36:28.266Z,13
2023-05-19T19:37:54.061Z,16
2023-05-19T19:39:01.354Z,16
2023-05-19T19:40:08.478Z,13
2023-05-19T19:42:07.906Z,13
2023-05-19T19:44:01.647Z,13
2023-05-19T19:45:32.922Z,14
2023-05-19T19:46:42.982Z,12
2023-05-19T19:47:52.187Z,12
2023-05-19T19:49:07.769Z,12
2023-05-19T19:50:28.546Z,12
2023-05-19T19:51:53.592Z,14
2023-05-19T19:53:01.247Z,11
2023-05-19T19:54:14.607Z,13
2023-05-19T19:55:29.350Z,13
2023-05-19T19:56:46.310Z,12
2023-05-19T19:58:38.727Z,12
2023-05-19T20:02:55.625Z,12
2023-05-19T20:04:11.439Z,12
2023-05-19T20:12:43.201Z,12
2023-05-19T20:20:26.833Z,17
2023-05-19T20:24:57.431Z,17
2023-05-19T20:26:32.177Z,17
2023-05-19T20:27:58.663Z,16
2023-05-19T20:29:28.649Z,16
2023-05-19T20:34:54.495Z,16
2023-05-19T20:36:54.975Z,16
2023-05-19T20:49:45.109Z,16
2023-05-19T20:50:55.753Z,17
2023-05-19T20:59:41.204Z,20
2023-05-19T21:00:48.287Z,22
2023-05-19T21:07:59.195Z,20
2023-05-19T21:09:08.977Z,22
2023-05-19T21:10:15.862Z,19
2023-05-19T21:11:22.922Z,21
2023-05-19T21:13:14.531Z,21
2023-05-19T21:15:01.276Z,21
2023-05-19T21:16:18.119Z,19
2023-05-19T21:20:39.525Z,18
2023-05-19T21:21:49.553Z,22
2023-05-19T21:23:08.389Z,21
2023-05-19T21:24:28.119Z,23
2023-05-19T21:25:34.984Z,22
2023-05-19T21:26:57.794Z,23
2023-05-19T21:28:36.761Z,23
2023-05-19T21:30:43.915Z,23
2023-05-19T21:31:57.833Z,20
2023-05-19T21:33:16.096Z,21
2023-05-19T21:36:39.197Z,19
2023-05-19T21:37:53.852Z,21
2023-05-19T21:39:30.981Z,21
2023-05-19T21:40:47.321Z,22
2023-05-19T21:42:11.847Z,20
2023-05-19T21:44:14.133Z,20
2023-05-19T21:45:23.965Z,25
2023-05-19T21:46:35.865Z,22
2023-05-19T21:51:00.981Z,22
2023-05-19T21:52:10.812Z,20
2023-05-19T21:53:54.530Z,20
2023-05-19T21:55:37.296Z,19
2023-05-19T21:57:15.984Z,19
2023-05-19T21:58:56.367Z,21
2023-05-19T22:00:43.429Z,21
2023-05-19T22:02:00.348Z,20
2023-05-19T22:03:10.036Z,23
2023-05-19T22:07:32.966Z,23
2023-05-19T22:09:09.007Z,23
2023-05-19T22:10:30.542Z,20
2023-05-19T22:12:27.970Z,20
2023-05-19T22:13:48.542Z,20
2023-05-19T22:15:01.961Z,22
2023-05-19T22:17:20.721Z,23
2023-05-19T22:18:28.729Z,20
2023-05-19T22:35:01.367Z,22
2023-05-19T22:39:12.318Z,20
2023-05-19T22:41:17.480Z,20
2023-05-19T22:42:51.681Z,20
2023-05-19T22:44:12.455Z,21
2023-05-19T22:45:19.385Z,22
2023-05-19T22:47:10.042Z,22
2023-05-19T22:48:42.174Z,22
2023-05-19T22:50:14.433Z,22
2023-05-19T22:52:00.781Z,21
2023-05-19T22:55:47.135Z,21
2023-05-19T22:57:46.262Z,21
2023-05-19T22:59:08.776Z,21
2023-05-19T23:00:17.586Z,21
2023-05-19T23:01:26.582Z,20
2023-05-19T23:05:46.353Z,19
2023-05-19T23:07:30.076Z,19
2023-05-19T23:09:20.362Z,19
2023-05-19T23:16:32.161Z,20
2023-05-19T23:18:02.473Z,20
2023-05-19T23:19:09.251Z,24
2023-05-19T23:20:16.038Z,20
2023-05-19T23:26:44.142Z,23
2023-05-19T23:28:50.250Z,23
2023-05-19T23:30:02.018Z,23
2023-05-19T23:31:11.234Z,21
2023-05-19T23:32:19.045Z,22
2023-05-19T23:34:12.561Z,22
2023-05-19T23:35:21.434Z,20
2023-05-19T23:36:35.301Z,19
2023-05-19T23:40:51.095Z,19
2023-05-19T23:42:05.980Z,21
2023-05-19T23:43:12.807Z,20
2023-05-19T23:44:19.693Z,22
2023-05-19T23:45:36.284Z,19
2023-05-19T23:47:15.269Z,19
2023-05-19T23:48:22.101Z,22
2023-05-19T23:49:51.039Z,22
2023-05-19T23:51:45.236Z,22
2023-05-19T23:53:29.833Z,22
2023-05-19T23:54:36.669Z,21
2023-05-19T23:55:47.405Z,25
2023-05-19T23:57:57.238Z,25
2023-05-19T23:59:34.213Z,25
